METAR AND TAF INFORMATION
METAR FOR LFKS
ADDS - METARS form results

(0216 UTC 20 September 2019)
Data provider http://aviationweather.gov/metar/data/
 
METAR text: LFKS 200200Z AUTO 34008KT 9999 BKN026 OVC032 21/18 Q1019
Conditions at: LFKS (SOLENZARA (FAFB), FR) observed 0200 UTC 20 September 2019
Temperature: 21.0°C (70°F)
Dewpoint: 18.0°C (64°F) [RH = 83%]
Pressure (altimeter): 30.09 inches Hg (1019.0 mb)
Winds: from the NNW (340 degrees) at 9 MPH (8 knots; 4.1 m/s)
Visibility: 6 or more miles (10+ km)
Ceiling: 2600 feet AGL
Clouds: broken clouds at 2600 feet AGL
overcast cloud deck at 3200 feet AGL
Weather: no significant weather observed at this time

METAR text: LFKS 200130Z AUTO 34009KT 9999 BKN028/// BKN037/// OVC150/// ///TCU 21/18 Q1019
Conditions at: LFKS (SOLENZARA (FAFB), FR) observed 0130 UTC 20 September 2019
Temperature: 21.0°C (70°F)
Dewpoint: 18.0°C (64°F) [RH = 83%]
Pressure (altimeter): 30.09 inches Hg (1019.0 mb)
Winds: from the NNW (340 degrees) at 10 MPH (9 knots; 4.6 m/s)
Visibility: 6 or more miles (10+ km)
Ceiling: 2800 feet AGL
Clouds: broken clouds at 2800 feet AGL
broken clouds at 3700 feet AGL
overcast cloud deck at 15000 feet AGL
Weather: no significant weather observed at this time

Forecast for: AMD
Text: TAF AMD LFKS 191434Z 1915/2015 34008KT 7000 TSRA BKN050CB
Forecast period: 1500 to 1600 UTC 19 September 2019
Forecast type: FROM: standard forecast or significant change
Winds: from the NNW (340 degrees) at 9 MPH (8 knots; 4.1 m/s)
Visibility: 4 miles (7 km)
Ceiling: 5000 feet AGL
Clouds: broken clouds at 5000 feet AGL
Weather: TSRA  (rain associated with thunderstorm(s))
Text: BECMG 1916/1918 NSW FEW040
Forecast period: 1600 UTC 19 September 2019 to 0800 UTC 20 September 2019
Forecast type: BECOMING: Conditions expected to become as follows by 1800 UTC 19 September 2019
Winds: from the NNW (340 degrees) at 9 MPH (8 knots; 4.1 m/s)
Visibility: 4 miles (7 km)
Ceiling: at least 12,000 feet AGL
Clouds: few clouds at 4000 feet AGL
Weather: NSW  (no significant weather)
Text: BECMG 2008/2010 04010KT
Forecast period: 0800 to 1500 UTC 20 September 2019
Forecast type: BECOMING: Conditions expected to become as follows by 1000 UTC 20 September 2019
Winds: from the NE (40 degrees) at 12 MPH (10 knots; 5.1 m/s)
Visibility: 4 miles (7 km)
Ceiling: at least 12,000 feet AGL
Clouds: few clouds at 4000 feet AGL
Weather: NSW  (no significant weather)

 AIRPORT MAP

 RUNWAY INFORMATION
Runway 18 Runway length 8619 ft Runway width 148 ft
Runway elevation 20 ft Runway displaced threshold 0 ft Runway heading 179
Runway 36 Runway length 8619 ft Runway width 148 ft
Runway elevation 18 ft Runway displaced threshold 0 ft Runway heading 359

 AIRPORT FREQUENCIES
Type APP Name APP Frequency 33.9 MHZ
Type APP Name APP Frequency 119.9 MHZ
Type TWR Name TWR Frequency 118.35 MHZ

 AIRPORT NEAR NAVIGATION AIDS
Type TACAN Name Solenzara Frequency 114000 KHZ
Type NDB Name Solenzara Frequency 350 KHZ